LIPR/RMI METAR and TAF weather

Enter ICAO airport designator
Station Type Date Time Source
LIPR METAR 2019/08/19 02:20 UTC NOAA

LIPR 190220Z AUTO 24003KT 9999 NCD 20/17 Q1014


Station Type Date Time Source
LIPR Decoded METAR 2019/08/19 02:20 UTC NOAA

Station name not available
Aug 18, 2019 - 10:20 PM EDT / 2019.08.19 0220 UTC
Wind: from the WSW (240 degrees) at 3 MPH (3 KT):0
Visibility: greater than 7 mile(s):0
Temperature: 68 F (20 C)
Dew Point: 62 F (17 C)
Relative Humidity: 82%
Pressure (altimeter): 29.94 in. Hg (1014 hPa)
ob: LIPR 190220Z AUTO 24003KT 9999 NCD 20/17 Q1014
cycle: 2

Station Type Date Time Source
LIPR TAF 2016/08/23 03:00 UTC NOAA

TAF LIPR 230200Z 2303/2312 04007KT CAVOK
BECMG 2308/2310 02010KT

Example: see airport list